Meteorología y climatología de Navarra
Datos de la estación - Meteo Navarra

Estación de Bardenas (El Yugo) GN

Altitud 486 m.


Datos desde el 16/09/2020 hasta el 17/09/2020 en horario solar
Los datos son PROVISIONALES

Anterior Página 1 de 1 Siguiente Descargar: Formato para Excel 2000 o superior   Formato csv   Formato para OpenOffice Calc
Fecha Temperatura Humedad relativa Radiación global Insolación Precipitación Vel. viento 10 m Vel. viento 10 m Dir. viento 10 m
ºC % W/m² s l/m² m/s km/h º
16/09/2020 0:00 22.1 53 0.0 0 0.0 4.5 16.0 103
16/09/2020 0:10 22.3 52 0.0 0 0.0 4.2 15.1 104
16/09/2020 0:20 22.4 51 0.0 0 0.0 4.0 14.3 104
16/09/2020 0:30 22.3 51 0.0 0 0.0 3.7 13.3 106
16/09/2020 0:40 22.2 51 0.0 0 0.0 3.8 13.6 109
16/09/2020 0:50 22.3 50 0.0 0 0.0 4.1 14.9 103
16/09/2020 1:00 22.0 51 0.0 0 0.0 3.4 12.3 98
16/09/2020 1:10 21.6 52 0.0 0 0.0 2.8 10.0 111
16/09/2020 1:20 21.8 52 0.0 0 0.0 2.7 9.7 130
16/09/2020 1:30 22.1 52 0.0 0 0.0 1.6 5.8 177
16/09/2020 1:40 21.8 53 0.0 0 0.0 1.3 4.7 175
16/09/2020 1:50 21.6 54 0.0 0 0.0 1.7 6.3 175
16/09/2020 2:00 21.6 55 0.0 0 0.0 1.5 5.5 206
16/09/2020 2:10 21.3 55 0.0 0 0.0 2.0 7.2 227
16/09/2020 2:20 21.2 56 0.0 0 0.0 1.8 6.5 234
16/09/2020 2:30 21.2 57 0.0 0 0.0 1.2 4.2 220
16/09/2020 2:40 21.3 57 0.0 0 0.0 1.2 4.2 241
16/09/2020 2:50 21.3 57 0.0 0 0.0 0.9 3.2 255
16/09/2020 3:00 21.4 56 0.0 0 0.0 0.0 0.1 158
16/09/2020 3:10 21.5 54 0.0 0 0.0 1.0 3.7 59
16/09/2020 3:20 21.3 55 0.0 0 0.0 2.2 8.0 69
16/09/2020 3:30 20.8 56 0.0 0 0.0 2.1 7.5 80
16/09/2020 3:40 20.7 57 0.0 0 0.0 1.8 6.5 65
16/09/2020 3:50 20.5 58 0.0 0 0.0 2.2 7.8 81
16/09/2020 4:00 20.0 59 0.0 0 0.0 2.3 8.4 89
16/09/2020 4:10 19.6 61 0.0 0 0.0 2.1 7.6 90
16/09/2020 4:20 19.2 62 0.0 0 0.0 1.6 5.6 94
16/09/2020 4:30 19.0 63 0.0 0 0.0 1.7 6.1 175
16/09/2020 4:40 18.7 66 0.0 0 0.0 1.8 6.4 185
16/09/2020 4:50 18.9 65 0.0 0 0.0 1.3 4.6 146
16/09/2020 5:00 19.1 63 0.0 0 0.0 1.8 6.5 125
16/09/2020 5:10 19.1 63 0.0 0 0.0 1.0 3.5 202
16/09/2020 5:20 19.1 64 0.0 0 0.0 1.5 5.3 127
16/09/2020 5:30 19.1 64 0.0 0 0.0 1.2 4.5 189
16/09/2020 5:40 19.2 64 0.0 0 0.0 0.9 3.3 216
16/09/2020 5:50 19.2 64 0.0 0 0.0 0.8 2.8 199
16/09/2020 6:00 19.4 62 0.0 0 0.0 1.4 5.1 114
16/09/2020 6:10 19.4 62 19.1 0 0.0 1.5 5.5 123
16/09/2020 6:20 19.7 61 36.3 176 0.0 1.4 5.0 122
16/09/2020 6:30 19.7 62 55.4 532 0.0 1.6 5.6 84
16/09/2020 6:40 19.8 62 78.5 600 0.0 1.6 5.7 91
16/09/2020 6:50 20.1 61 104.3 600 0.0 1.6 5.8 72
16/09/2020 7:00 20.2 61 134.8 600 0.0 1.7 6.3 78
16/09/2020 7:10 20.5 60 164.3 600 0.0 2.2 8.0 75
16/09/2020 7:20 20.8 60 194.2 600 0.0 2.2 7.7 82
16/09/2020 7:30 21.5 57 224.1 600 0.0 2.0 7.3 83
16/09/2020 7:40 22.1 55 255.3 600 0.0 1.7 6.2 89
16/09/2020 7:50 22.4 54 287.7 600 0.0 2.4 8.5 82
16/09/2020 8:00 22.7 53 319.1 600 0.0 2.5 9.0 84
16/09/2020 8:10 23.3 53 349.4 600 0.0 2.6 9.5 95
16/09/2020 8:20 23.9 52 373.3 600 0.0 2.7 9.8 98
16/09/2020 8:30 24.4 50 379.0 600 0.0 1.9 6.7 88
16/09/2020 8:40 24.6 49 429.8 600 0.0 1.8 6.6 89
16/09/2020 8:50 25.2 48 464.2 600 0.0 1.6 5.9 76
16/09/2020 9:00 25.7 46 488.5 600 0.0 0.8 3.0 80
16/09/2020 9:10 25.6 47 516.9 600 0.0 0.7 2.5 139
16/09/2020 9:20 26.3 45 548.1 600 0.0 1.3 4.8 87
16/09/2020 9:30 26.7 44 572.7 600 0.0 1.7 6.2 69
16/09/2020 9:40 26.8 43 592.1 600 0.0 1.3 4.6 100
16/09/2020 9:50 27.0 42 612.2 600 0.0 1.1 4.1 103
16/09/2020 10:00 27.2 44 629.5 600 0.0 1.2 4.1 183
16/09/2020 10:10 27.3 44 644.3 600 0.0 1.6 5.6 217
16/09/2020 10:20 27.3 44 664.0 600 0.0 1.7 6.0 213
16/09/2020 10:30 27.5 44 680.6 600 0.0 1.5 5.2 198
16/09/2020 10:40 28.1 42 696.4 600 0.0 1.2 4.4 161
16/09/2020 10:50 28.5 40 714.8 600 0.0 1.2 4.5 142
16/09/2020 11:00 29.2 38 725.2 600 0.0 0.6 2.1 134
16/09/2020 11:10 29.5 37 728.3 600 0.0 1.1 3.9 107
16/09/2020 11:20 29.6 37 729.8 600 0.0 1.3 4.6 121
16/09/2020 11:30 30.4 35 736.8 600 0.0 1.0 3.4 115
16/09/2020 11:40 30.0 35 726.4 600 0.0 0.7 2.5 127
16/09/2020 11:50 30.7 34 743.4 600 0.0 1.0 3.7 119
16/09/2020 12:00 30.9 33 738.4 600 0.0 0.7 2.3 112
16/09/2020 12:10 31.0 33 732.8 600 0.0 1.2 4.2 52
16/09/2020 12:20 31.3 31 740.1 600 0.0 1.6 5.8 76
16/09/2020 12:30 31.4 31 730.2 600 0.0 1.5 5.5 42
16/09/2020 12:40 31.3 32 728.9 600 0.0 0.5 1.9 73
16/09/2020 12:50 31.7 30 722.6 600 0.0 1.3 4.5 96
16/09/2020 13:00 32.3 28 719.4 600 0.0 1.3 4.8 93
16/09/2020 13:10 32.4 27 708.1 600 0.0 1.4 5.2 75
16/09/2020 13:20 31.9 28 699.6 600 0.0 2.4 8.6 15
16/09/2020 13:30 31.7 28 669.7 600 0.0 1.3 4.8 359
16/09/2020 13:40 32.3 26 692.8 600 0.0 2.0 7.3 153
16/09/2020 13:50 32.4 26 672.1 600 0.0 1.5 5.3 124
16/09/2020 14:00 32.9 25 636.2 600 0.0 2.1 7.6 46
16/09/2020 14:10 32.8 25 623.0 600 0.0 1.8 6.6 49
16/09/2020 14:20 32.9 25 489.9 592 0.0 1.7 5.9 23
16/09/2020 14:30 32.6 25 525.7 600 0.0 1.8 6.6 84
16/09/2020 14:40 32.7 25 500.4 600 0.0 1.0 3.5 189
16/09/2020 14:50 32.6 25 318.2 326 0.0 1.3 4.6 152
16/09/2020 15:00 32.0 26 263.8 30 0.0 1.1 4.0 115
16/09/2020 15:10 31.8 26 255.9 0 0.0 0.8 3.0 94
16/09/2020 15:20 31.4 27 316.0 484 0.0 1.8 6.6 278
16/09/2020 15:30 31.8 26 355.9 600 0.0 2.5 8.9 256
16/09/2020 15:40 31.8 26 318.6 600 0.0 1.9 6.8 212
16/09/2020 15:50 32.1 26 398.3 600 0.0 2.1 7.4 237
16/09/2020 16:00 32.5 26 423.5 600 0.0 1.9 6.7 211
16/09/2020 16:10 32.7 26 354.8 600 0.0 1.9 6.7 290
16/09/2020 16:20 32.1 26 293.9 600 0.0 2.5 9.0 347
16/09/2020 16:30 31.3 27 248.4 600 0.0 2.5 9.0 355
16/09/2020 16:40 31.2 27 189.2 600 0.0 0.7 2.4 357
16/09/2020 16:50 31.6 27 143.3 324 0.0 0.8 2.8 319
16/09/2020 17:00 31.1 28 103.8 0 0.0 0.6 2.0 273
16/09/2020 17:10 30.6 29 61.3 0 0.0 1.4 4.9 196
16/09/2020 17:20 30.0 31 72.2 0 0.0 2.7 9.9 220
16/09/2020 17:30 29.7 32 47.3 0 0.0 2.9 10.5 219
16/09/2020 17:40 29.1 33 29.4 0 0.0 2.2 7.8 228
16/09/2020 17:50 28.5 34 21.9 0 0.0 2.1 7.5 242
16/09/2020 18:00 28.3 35 5.4 0 0.0 1.5 5.4 272
16/09/2020 18:10 28.0 35 0.0 0 0.0 1.3 4.8 261
16/09/2020 18:20 27.8 35 0.0 0 0.0 1.4 4.9 248
16/09/2020 18:30 27.4 36 0.0 0 0.0 1.5 5.4 224
16/09/2020 18:40 27.4 36 0.0 0 0.0 1.4 5.0 208
16/09/2020 18:50 27.2 36 0.0 0 0.0 1.3 4.8 214
16/09/2020 19:00 27.2 36 0.0 0 0.0 1.4 5.1 223
16/09/2020 19:10 27.4 35 0.0 0 0.0 1.5 5.3 222
16/09/2020 19:20 27.4 33 0.0 0 0.0 1.3 4.8 224
16/09/2020 19:30 27.5 32 0.0 0 0.0 1.6 5.9 206
16/09/2020 19:40 27.4 32 0.0 0 0.0 2.1 7.4 202
16/09/2020 19:50 27.4 32 0.0 0 0.0 2.1 7.6 203
16/09/2020 20:00 27.2 32 0.0 0 0.0 2.0 7.2 214
16/09/2020 20:10 27.1 32 0.0 0 0.0 1.5 5.3 227
16/09/2020 20:20 27.3 32 0.0 0 0.0 1.1 3.9 264
16/09/2020 20:30 27.5 33 0.0 0 0.0 2.0 7.1 324
16/09/2020 20:40 26.6 36 0.0 0 0.0 2.3 8.4 340
16/09/2020 20:50 26.6 36 0.0 0 0.0 2.5 9.0 355
16/09/2020 21:00 26.3 36 0.0 0 0.0 2.0 7.3 9
16/09/2020 21:10 26.1 37 0.0 0 0.0 1.9 6.9 46
16/09/2020 21:20 26.1 37 0.0 0 0.0 2.6 9.2 76
16/09/2020 21:30 25.2 39 0.0 0 0.0 2.6 9.4 81
16/09/2020 21:40 24.9 40 0.0 0 0.0 2.7 9.8 73
16/09/2020 21:50 24.5 41 0.0 0 0.0 2.9 10.4 75
16/09/2020 22:00 24.2 42 0.0 0 0.0 3.5 12.5 78
16/09/2020 22:10 24.0 42 0.0 0 0.0 3.5 12.4 85
16/09/2020 22:20 23.5 42 0.0 0 0.0 3.7 13.4 88
16/09/2020 22:30 23.6 42 0.0 0 0.0 3.7 13.3 90
16/09/2020 22:40 23.6 42 0.0 0 0.0 4.2 15.0 93
16/09/2020 22:50 23.7 42 0.0 0 0.0 4.4 15.7 93
16/09/2020 23:00 23.4 44 0.0 0 0.0 5.3 19.0 96
16/09/2020 23:10 23.2 45 0.0 0 0.0 4.8 17.3 90
16/09/2020 23:20 23.2 45 0.0 0 0.0 4.9 17.7 88
16/09/2020 23:30 22.9 47 0.0 0 0.0 4.6 16.5 90
16/09/2020 23:40 22.8 49 0.0 0 0.0 5.6 20.2 91
16/09/2020 23:50 22.9 52 0.0 0 0.0 6.5 23.3 93
Anterior Página 1 de 1 Siguiente

NOTA: Tipo de datos según el color:
   - Valores diarios o 10 minutos correctos
   - Valores diarios calculados a partir de un número de datos 10 minutos menor que 144 y mayor que 120, o de un número de datos semihorarios menor que 48 y mayor que 40 (caso de las estaciones de INTIA y del Ministerio)
   - Valores diez minutos estimados


Contacto        Enlaces        Aviso legal